METAR Data
IDs: Format: Raw Decoded Include TAF

Data at: 1316 UTC 15 Jul 2020

KMQY 151256Z 00000KT 10SM CLR 24/21 A3009 RMK AO2 SLP190 T02390211 PNO $
KMQY 151156Z 00000KT 10SM CLR 21/21 A3008 RMK AO2 SLP186 6//// 7//// T02110206 10222 20194 53011 PNO $
KMQY 151056Z AUTO 00000KT 9SM CLR 20/19 A3006 RMK AO2 SLP180 T02000194 PNO $
KMQY 150956Z AUTO 00000KT 9SM CLR 20/19 A3004 RMK AO2 SLP176 T02000194 PNO $
KMQY 150856Z AUTO 00000KT 10SM CLR 21/20 A3004 RMK AO2 SLP176 6//// T02060200 53001 PNO $
KMQY 150756Z AUTO 00000KT 10SM CLR 21/20 A3004 RMK AO2 SLP174 T02060200 PNO $
KMQY 150656Z AUTO 00000KT 10SM CLR 21/21 A3003 RMK AO2 SLP170 T02110206 PNO $
KMQY 150556Z AUTO 00000KT 10SM CLR 22/21 A3004 RMK AO2 SLP176 6//// T02220206 10306 20211 403330189 58001 PNO $
KMQY 150456Z AUTO 00000KT 10SM CLR 22/21 A3005 RMK AO2 SLP176 T02220206 PNO $
KMQY 150356Z AUTO 00000KT 10SM CLR 23/21 A3005 RMK AO2 SLP178 T02280206 PNO $
KMQY 150256Z AUTO 00000KT 10SM CLR 24/21 A3005 RMK AO2 SLP177 6//// T02440211 53008 PNO $
KMQY 150156Z 00000KT 7SM SCT065 26/21 A3004 RMK AO2 SLP172 T02560206 PNO $
KMQY 150056Z 00000KT 9SM CLR 27/21 A3003 RMK AO2 SLP170 T02720211 PNO $
KMQY 142356Z 07003KT 10SM SCT060 31/19 A3002 RMK AO2 SLP168 6//// T03060194 10333 20300 53004 PNO $
KMQY 142256Z 09003KT 10SM SCT060 31/19 A3002 RMK AO2 SLP166 T03110189 PNO $
KMQY 142156Z 00000KT 10SM SCT060 33/18 A3001 RMK AO2 SLP162 T03280183 PNO $
KMQY 142056Z 09006KT 10SM SCT055 33/19 A3001 RMK AO2 SLP165 6//// T03330189 58013 PNO $
KMQY 141956Z 06004KT 10SM SCT055 33/19 A3003 RMK AO2 SLP172 T03330194 PNO $
KMQY 141856Z 00000KT 10SM BKN060 30/19 A3005 RMK AO2 SLP175 T03000189 PNO $
KMQY 141756Z 00000KT 10SM SCT045 31/19 A3005 RMK AO2 SLP178 6//// T03060194 10317 20211 55004 PNO $
KMQY 141656Z 00000KT 10SM SCT048 30/19 A3004 RMK AO2 SLP176 T03000194 PNO $
KMQY 141556Z VRB03KT 10SM FEW035 30/19 A3005 RMK AO2 SLP177 T03000189 PNO $
KMQY 141456Z 15003KT 10SM CLR 28/22 A3006 RMK AO2 SLP181 6//// T02830217 50003 PNO $
KMQY 141356Z VRB03KT 10SM CLR 26/21 A3006 RMK AO2 SLP181 T02610211 PNO $
KMQY 141256Z 00000KT 10SM CLR 24/21 A3007 RMK AO2 SLP184 T02390211 PNO $
KMQY 141156Z 00000KT 10SM CLR 21/20 A3005 RMK AO2 SLP177 6//// 7//// T02110200 10222 20189 52023 PNO $
KMQY 141056Z AUTO 00000KT 5SM BR CLR 19/19 A3003 RMK AO2 SLP170 T01890189 PNO $
KMQY 140956Z AUTO 00000KT 9SM CLR 19/19 A3001 RMK AO2 SLP162 T01940194 PNO $
KMQY 140856Z AUTO 00000KT 10SM CLR 20/19 A2998 RMK AO2 SLP153 6//// T02000194 58004 PNO $
KMQY 140756Z AUTO 34004KT 10SM CLR 21/19 A2999 RMK AO2 SLP156 T02060194 PNO $
KMQY 140656Z AUTO 00000KT 10SM CLR 21/20 A2999 RMK AO2 SLP156 T02110200 PNO $
KMQY 140556Z AUTO 00000KT 10SM CLR 22/20 A2999 RMK AO2 SLP158 6//// T02220200 10306 20222 403170200 50005 PNO $
KMQY 140456Z AUTO 09003KT 10SM CLR 23/21 A2999 RMK AO2 SLP158 T02330206 PNO $
KMQY 140356Z AUTO 04007KT 10SM CLR 25/21 A2998 RMK AO2 SLP155 T02500206 PNO $
KMQY 140256Z AUTO 36005KT 10SM CLR 26/21 A2998 RMK AO2 SLP153 6//// T02560206 53011 PNO $
KMQY 140156Z 00000KT 10SM CLR 26/22 A2996 RMK AO2 SLP146 T02560217 PNO $